createdAt,value
2022-09-07T00:00:11.087Z,2.67
2022-09-07T00:02:39.944Z,1.60
2022-09-07T00:05:09.915Z,1.40
2022-09-07T00:07:38.696Z,1.13
2022-09-07T00:10:09.249Z,1.37
2022-09-07T00:12:41.256Z,1.70
2022-09-07T00:15:12.924Z,1.02
2022-09-07T00:17:42.257Z,1.52
2022-09-07T00:20:13.530Z,1.85
2022-09-07T00:22:42.402Z,1.90
2022-09-07T00:25:11.636Z,2.53
2022-09-07T00:27:42.523Z,1.95
2022-09-07T00:30:12.712Z,1.40
2022-09-07T00:32:41.806Z,1.83
2022-09-07T00:35:12.781Z,1.60
2022-09-07T00:37:41.752Z,1.90
2022-09-07T00:40:11.385Z,1.38
2022-09-07T00:42:41.748Z,1.20
2022-09-07T00:45:17.379Z,1.17
2022-09-07T00:47:56.858Z,1.37
2022-09-07T00:50:33.238Z,1.30
2022-09-07T00:53:07.589Z,1.50
2022-09-07T00:55:39.219Z,1.55
2022-09-07T00:58:10.609Z,1.05
2022-09-07T01:00:43.171Z,1.77
2022-09-07T01:03:13.258Z,1.70
2022-09-07T01:05:49.650Z,2.30
2022-09-07T01:08:18.897Z,2.38
2022-09-07T01:10:48.045Z,1.92
2022-09-07T01:13:18.199Z,1.97
2022-09-07T01:16:01.011Z,1.98
2022-09-07T01:18:43.699Z,2.17
2022-09-07T01:21:26.247Z,1.85
2022-09-07T01:24:40.929Z,1.73
2022-09-07T01:27:53.396Z,1.60
2022-09-07T01:30:25.682Z,1.67
2022-09-07T01:33:25.839Z,1.00
2022-09-07T01:36:11.700Z,1.63
2022-09-07T01:38:46.809Z,1.60
2022-09-07T01:41:25.216Z,1.80
2022-09-07T01:44:01.332Z,2.15
2022-09-07T01:46:37.624Z,2.05
2022-09-07T01:49:15.021Z,2.58
2022-09-07T01:51:52.148Z,2.42
2022-09-07T01:54:31.121Z,2.30
2022-09-07T01:57:13.845Z,2.10
2022-09-07T01:59:49.016Z,1.73
2022-09-07T02:02:29.828Z,1.58
2022-09-07T02:05:08.994Z,0.88
2022-09-07T02:07:46.505Z,0.93
2022-09-07T02:10:23.252Z,0.98
2022-09-07T02:12:59.346Z,0.73
2022-09-07T02:15:38.622Z,0.70
2022-09-07T02:18:11.470Z,0.40
2022-09-07T02:20:45.101Z,0.90
2022-09-07T02:23:20.729Z,0.82
2022-09-07T02:25:57.215Z,1.40
2022-09-07T02:28:31.491Z,1.10
2022-09-07T02:31:00.887Z,1.13
2022-09-07T02:33:31.956Z,1.47
2022-09-07T02:36:02.505Z,1.13
2022-09-07T02:38:32.301Z,1.20
2022-09-07T02:41:03.156Z,1.95
2022-09-07T02:43:34.172Z,2.25
2022-09-07T02:46:26.132Z,1.83
2022-09-07T02:49:11.791Z,2.90
2022-09-07T02:51:54.160Z,2.97
2022-09-07T02:54:40.593Z,4.53
2022-09-07T02:57:23.260Z,3.75
2022-09-07T03:00:07.143Z,2.67
2022-09-07T03:02:51.920Z,2.80
2022-09-07T03:05:28.229Z,4.15
2022-09-07T03:08:05.539Z,3.88
2022-09-07T03:10:35.693Z,3.45
2022-09-07T03:13:05.020Z,3.00
2022-09-07T03:15:33.853Z,2.00
2022-09-07T03:18:02.693Z,2.88
2022-09-07T03:20:32.856Z,3.28
2022-09-07T03:23:01.695Z,3.17
2022-09-07T03:25:30.482Z,2.80
2022-09-07T03:27:59.374Z,1.65
2022-09-07T03:30:28.106Z,2.90
2022-09-07T03:32:57.006Z,2.40
2022-09-07T03:35:25.727Z,3.33
2022-09-07T03:37:55.873Z,1.87
2022-09-07T03:40:25.563Z,2.88
2022-09-07T03:42:54.929Z,2.28
2022-09-07T03:45:23.757Z,2.30
2022-09-07T03:47:52.563Z,2.60
2022-09-07T03:50:21.466Z,2.13
2022-09-07T03:52:50.173Z,1.95
2022-09-07T03:55:21.857Z,3.00
2022-09-07T03:57:50.739Z,2.30
2022-09-07T04:00:19.623Z,2.00
2022-09-07T04:02:48.853Z,1.50
2022-09-07T04:05:18.082Z,1.48
2022-09-07T04:07:49.419Z,1.30
2022-09-07T04:10:19.711Z,0.88
2022-09-07T04:12:48.529Z,0.50
2022-09-07T04:15:17.389Z,0.40
2022-09-07T04:17:46.156Z,0.60
2022-09-07T04:20:15.144Z,0.57
2022-09-07T04:22:44.389Z,0.70
2022-09-07T04:25:13.185Z,0.60
2022-09-07T04:27:43.444Z,0.50
2022-09-07T04:30:14.698Z,0.60
2022-09-07T04:32:43.638Z,0.50
2022-09-07T04:35:12.942Z,0.65
2022-09-07T04:37:42.091Z,0.50
2022-09-07T04:40:11.982Z,0.43
2022-09-07T04:42:42.457Z,0.60
2022-09-07T04:45:12.390Z,0.50
2022-09-07T04:47:41.137Z,0.30
2022-09-07T04:50:11.286Z,0.43
2022-09-07T04:52:40.158Z,0.20
2022-09-07T04:55:09.955Z,0.50
2022-09-07T04:57:39.942Z,0.40
2022-09-07T05:00:12.765Z,0.40
2022-09-07T05:02:41.665Z,0.30
2022-09-07T05:05:11.237Z,0.70
2022-09-07T05:07:40.159Z,0.50
2022-09-07T05:10:09.860Z,0.30
2022-09-07T05:12:40.495Z,0.28
2022-09-07T05:15:12.402Z,0.10
2022-09-07T05:17:43.689Z,0.20
2022-09-07T05:20:16.291Z,0.45
2022-09-07T05:22:50.344Z,0.30
2022-09-07T05:25:19.383Z,0.30
2022-09-07T05:27:52.629Z,0.30
2022-09-07T05:33:12.654Z,0.40
2022-09-07T05:35:41.394Z,0.20
2022-09-07T05:38:10.089Z,0.10
2022-09-07T05:40:40.849Z,0.40
2022-09-07T05:43:10.482Z,0.20
2022-09-07T05:45:40.752Z,0.20
2022-09-07T05:48:09.528Z,0.40
2022-09-07T05:50:38.322Z,1.13
2022-09-07T05:53:07.276Z,0.30
2022-09-07T05:55:36.073Z,0.30
2022-09-07T05:58:04.838Z,0.17
2022-09-07T06:00:34.026Z,0.10
2022-09-07T06:03:04.459Z,0.20
2022-09-07T06:05:33.323Z,0.68
2022-09-07T06:08:02.020Z,0.60
2022-09-07T06:13:11.211Z,0.10
2022-09-07T06:15:40.146Z,0.40
2022-09-07T06:18:10.308Z,0.20
2022-09-07T06:20:39.136Z,0.43
2022-09-07T06:23:09.699Z,0.35
2022-09-07T06:25:38.521Z,0.50
2022-09-07T06:28:07.291Z,0.20
2022-09-07T06:30:37.479Z,0.20
2022-09-07T06:33:06.467Z,0.20
2022-09-07T06:35:36.687Z,0.20
2022-09-07T06:38:05.414Z,0.30
2022-09-07T06:40:35.809Z,0.20
2022-09-07T06:43:04.732Z,0.40
2022-09-07T06:45:33.731Z,0.20
2022-09-07T06:48:02.621Z,0.20
2022-09-07T06:50:31.435Z,0.20
2022-09-07T06:55:51.224Z,0.10
2022-09-07T06:58:20.433Z,0.33
2022-09-07T07:00:49.458Z,0.30
2022-09-07T07:03:18.594Z,0.10
2022-09-07T07:05:53.891Z,0.20
2022-09-07T07:08:27.816Z,0.10
2022-09-07T07:11:03.480Z,0.27
2022-09-07T07:13:32.749Z,0.70
2022-09-07T07:16:06.095Z,0.52
2022-09-07T07:18:36.237Z,0.68
2022-09-07T07:21:07.858Z,0.30
2022-09-07T07:23:38.722Z,0.20
2022-09-07T07:26:11.722Z,1.27
2022-09-07T07:31:32.710Z,0.90
2022-09-07T07:34:02.318Z,0.60
2022-09-07T07:36:31.620Z,0.50
2022-09-07T07:39:04.516Z,0.60
2022-09-07T07:42:03.238Z,0.60
2022-09-07T07:44:35.104Z,1.02
2022-09-07T07:47:04.811Z,0.45
2022-09-07T07:49:36.191Z,0.23
2022-09-07T07:54:58.782Z,0.10
2022-09-07T07:57:32.102Z,1.30
2022-09-07T08:00:03.896Z,0.20
2022-09-07T08:02:42.521Z,0.20
2022-09-07T08:05:14.047Z,0.20
2022-09-07T08:07:43.079Z,0.10
2022-09-07T08:10:14.337Z,0.10
2022-09-07T08:12:49.547Z,0.30
2022-09-07T08:15:21.382Z,0.20
2022-09-07T08:17:56.520Z,0.10
2022-09-07T08:20:29.324Z,0.20
2022-09-07T08:23:00.596Z,0.20
2022-09-07T08:29:56.841Z,0.30
2022-09-07T08:32:30.513Z,0.15
2022-09-07T08:34:59.457Z,0.30
2022-09-07T08:37:29.422Z,0.47
2022-09-07T08:39:58.275Z,0.30
2022-09-07T08:42:47.381Z,0.30
2022-09-07T08:45:26.387Z,0.20
2022-09-07T08:47:55.183Z,0.10
2022-09-07T08:50:29.901Z,0.57
2022-09-07T08:53:04.222Z,0.10
2022-09-07T08:55:41.146Z,0.07
2022-09-07T08:58:38.525Z,0.30
2022-09-07T09:04:19.823Z,0.30
2022-09-07T09:07:16.617Z,0.10
2022-09-07T09:10:12.868Z,0.20
2022-09-07T09:13:11.390Z,0.10
2022-09-07T09:15:54.521Z,0.20
2022-09-07T09:18:43.082Z,0.25
2022-09-07T09:21:16.912Z,0.10
2022-09-07T09:23:49.634Z,0.10
2022-09-07T09:26:24.996Z,0.15
2022-09-07T09:28:55.183Z,0.57
2022-09-07T09:31:29.291Z,0.10
2022-09-07T09:34:13.349Z,0.20
2022-09-07T09:36:46.673Z,0.20
2022-09-07T09:39:31.673Z,0.10
2022-09-07T09:42:16.523Z,0.20
2022-09-07T09:44:47.071Z,0.20
2022-09-07T09:47:32.705Z,0.20
2022-09-07T09:50:08.129Z,0.20
2022-09-07T09:52:47.952Z,0.10
2022-09-07T09:55:34.855Z,0.10
2022-09-07T10:06:24.264Z,0.38
2022-09-07T10:08:58.546Z,0.10
2022-09-07T10:12:11.865Z,0.10
2022-09-07T10:14:48.099Z,0.10
2022-09-07T10:17:30.177Z,0.60
2022-09-07T10:20:31.942Z,0.10
2022-09-07T10:23:03.452Z,0.20
2022-09-07T10:25:36.487Z,0.20
2022-09-07T10:28:18.512Z,0.15
2022-09-07T10:31:13.944Z,0.10
2022-09-07T10:36:55.015Z,0.10
2022-09-07T10:39:31.722Z,0.20
2022-09-07T10:42:24.441Z,0.20
2022-09-07T10:45:10.587Z,0.30
2022-09-07T10:47:57.973Z,0.10
2022-09-07T10:50:32.933Z,0.10
2022-09-07T10:53:42.315Z,0.38
2022-09-07T10:56:19.031Z,0.45
2022-09-07T10:59:07.908Z,0.20
2022-09-07T11:01:53.390Z,0.20
2022-09-07T11:05:02.555Z,0.38
2022-09-07T11:08:00.147Z,0.32
2022-09-07T11:10:42.525Z,0.10
2022-09-07T11:13:22.313Z,0.40
2022-09-07T11:15:58.144Z,1.00
2022-09-07T11:18:33.941Z,2.70
2022-09-07T11:21:07.491Z,1.45
2022-09-07T11:23:44.259Z,0.30
2022-09-07T11:26:23.537Z,0.13
2022-09-07T11:31:54.971Z,0.10
2022-09-07T11:34:33.333Z,0.57
2022-09-07T11:37:15.621Z,0.20
2022-09-07T11:39:51.665Z,0.10
2022-09-07T11:42:44.126Z,0.10
2022-09-07T11:45:21.791Z,0.10
2022-09-07T11:48:00.628Z,0.20
2022-09-07T11:50:35.709Z,0.10
2022-09-07T11:53:09.301Z,0.20
2022-09-07T11:55:45.920Z,0.10
2022-09-07T11:58:48.342Z,0.20
2022-09-07T12:01:33.475Z,1.40
2022-09-07T12:04:36.641Z,0.40
2022-09-07T12:07:39.718Z,0.20
2022-09-07T12:10:51.181Z,0.32
2022-09-07T12:13:53.297Z,0.20
2022-09-07T12:16:40.630Z,0.30
2022-09-07T12:19:21.520Z,0.20
2022-09-07T12:21:57.869Z,0.40
2022-09-07T12:24:44.620Z,0.28
2022-09-07T12:27:42.941Z,0.20
2022-09-07T12:30:59.747Z,0.88
2022-09-07T12:33:35.776Z,0.10
2022-09-07T12:36:44.393Z,0.20
2022-09-07T12:39:27.339Z,0.20
2022-09-07T12:42:32.553Z,0.38
2022-09-07T12:45:52.310Z,0.28
2022-09-07T12:48:43.662Z,0.43
2022-09-07T12:54:27.596Z,0.40
2022-09-07T12:57:30.628Z,0.77
2022-09-07T13:00:17.585Z,0.25
2022-09-07T13:03:56.892Z,0.30
2022-09-07T13:07:02.320Z,0.10
2022-09-07T13:09:35.452Z,0.20
2022-09-07T13:15:38.118Z,0.20
2022-09-07T13:18:12.213Z,0.20
2022-09-07T13:20:41.803Z,0.30
2022-09-07T13:23:31.355Z,0.40
2022-09-07T13:26:01.601Z,0.20
2022-09-07T13:28:54.840Z,0.38
2022-09-07T13:31:50.070Z,0.57
2022-09-07T13:34:49.598Z,0.60
2022-09-07T13:37:23.842Z,0.90
2022-09-07T13:39:58.052Z,0.30
2022-09-07T13:42:31.623Z,0.73
2022-09-07T13:45:03.645Z,0.50
2022-09-07T13:47:54.681Z,0.90
2022-09-07T13:50:38.117Z,0.85
2022-09-07T13:53:46.857Z,0.88
2022-09-07T13:56:30.482Z,0.60
2022-09-07T13:58:59.554Z,0.52
2022-09-07T14:01:30.734Z,0.30
2022-09-07T14:04:07.512Z,0.17
2022-09-07T14:06:39.141Z,0.40
2022-09-07T14:09:16.177Z,0.95
2022-09-07T14:11:49.334Z,1.77
2022-09-07T14:14:22.378Z,1.57
2022-09-07T14:17:02.929Z,0.98
2022-09-07T14:19:39.993Z,0.50
2022-09-07T14:22:14.255Z,0.60
2022-09-07T14:24:49.456Z,0.50
2022-09-07T14:27:25.763Z,0.80
2022-09-07T14:29:54.878Z,0.20
2022-09-07T14:32:27.171Z,0.28
2022-09-07T14:34:56.103Z,0.20
2022-09-07T14:37:25.708Z,0.30
2022-09-07T14:39:56.159Z,0.30
2022-09-07T14:42:26.413Z,0.15
2022-09-07T14:45:21.721Z,0.20
2022-09-07T14:47:53.536Z,0.50
2022-09-07T14:50:25.860Z,0.20
2022-09-07T14:55:47.885Z,0.25
2022-09-07T14:58:25.996Z,0.50
2022-09-07T15:04:02.006Z,1.92
2022-09-07T15:09:36.645Z,7.10
2022-09-07T15:12:19.176Z,11.35
2022-09-07T15:14:49.515Z,2.72
2022-09-07T15:17:47.505Z,2.22
2022-09-07T15:20:38.300Z,2.60
2022-09-07T15:23:11.920Z,1.63
2022-09-07T15:25:46.506Z,0.70
2022-09-07T15:34:16.038Z,0.50
2022-09-07T15:36:49.186Z,0.32
2022-09-07T15:39:20.493Z,0.80
2022-09-07T15:41:52.362Z,0.30
2022-09-07T15:44:25.252Z,0.55
2022-09-07T15:49:53.795Z,1.95
2022-09-07T15:52:22.883Z,2.55
2022-09-07T15:54:54.040Z,2.50
2022-09-07T16:00:14.156Z,0.47
2022-09-07T16:05:35.909Z,0.50
2022-09-07T16:11:24.862Z,0.32
2022-09-07T16:14:01.356Z,0.20
2022-09-07T16:19:35.101Z,0.30
2022-09-07T16:22:06.401Z,0.22
2022-09-07T16:24:38.094Z,0.30
2022-09-07T16:27:16.224Z,0.40
2022-09-07T16:29:48.568Z,0.60
2022-09-07T16:35:25.423Z,0.40
2022-09-07T16:40:43.703Z,0.30
2022-09-07T16:43:12.742Z,0.25
2022-09-07T16:48:34.196Z,0.30
2022-09-07T16:51:09.991Z,0.45
2022-09-07T16:53:39.854Z,0.60
2022-09-07T16:56:12.524Z,0.60
2022-09-07T16:58:44.892Z,0.65
2022-09-07T17:01:19.066Z,0.63
2022-09-07T17:03:50.771Z,0.65
2022-09-07T17:06:24.872Z,0.40
2022-09-07T17:09:26.310Z,0.90
2022-09-07T17:11:56.439Z,0.88
2022-09-07T17:14:40.832Z,0.43
2022-09-07T17:17:25.950Z,0.70
2022-09-07T17:20:14.922Z,0.30
2022-09-07T17:23:25.746Z,0.70
2022-09-07T17:26:10.234Z,0.57
2022-09-07T17:28:41.540Z,0.38
2022-09-07T17:34:16.372Z,0.47
2022-09-07T17:36:53.515Z,0.40
2022-09-07T17:39:44.549Z,0.50
2022-09-07T17:45:21.923Z,0.55
2022-09-07T17:47:51.209Z,0.77
2022-09-07T17:50:25.995Z,2.15
2022-09-07T17:52:55.826Z,2.00
2022-09-07T17:55:27.643Z,2.13
2022-09-07T17:58:04.551Z,2.40
2022-09-07T18:00:40.627Z,2.23
2022-09-07T18:03:17.306Z,2.17
2022-09-07T18:05:54.607Z,1.85
2022-09-07T18:08:26.713Z,1.38
2022-09-07T18:13:58.795Z,1.27
2022-09-07T18:16:31.871Z,0.63
2022-09-07T18:19:05.930Z,0.40
2022-09-07T18:21:38.488Z,0.43
2022-09-07T18:24:16.989Z,0.40
2022-09-07T18:26:51.606Z,0.73
2022-09-07T18:29:29.430Z,0.43
2022-09-07T18:32:02.817Z,0.63
2022-09-07T18:34:32.851Z,0.80
2022-09-07T18:37:02.641Z,1.80
2022-09-07T18:39:36.858Z,1.10
2022-09-07T18:42:08.429Z,1.50
2022-09-07T18:47:31.721Z,0.77
2022-09-07T18:50:01.091Z,0.10
2022-09-07T18:52:52.128Z,0.60
2022-09-07T18:55:22.116Z,0.40
2022-09-07T18:57:55.721Z,0.65
2022-09-07T19:00:25.130Z,1.33
2022-09-07T19:02:54.644Z,0.80
2022-09-07T19:08:16.589Z,2.63
2022-09-07T19:10:47.258Z,2.45
2022-09-07T19:13:17.957Z,1.67
2022-09-07T19:15:47.178Z,0.40
2022-09-07T19:18:16.538Z,0.20
2022-09-07T19:20:45.819Z,0.40
2022-09-07T19:23:15.351Z,0.30
2022-09-07T19:25:44.530Z,0.30
2022-09-07T19:28:14.555Z,0.20
2022-09-07T19:30:45.281Z,0.27
2022-09-07T19:33:14.718Z,0.20
2022-09-07T19:35:44.353Z,0.20
2022-09-07T19:38:14.008Z,0.20
2022-09-07T19:40:43.051Z,0.20
2022-09-07T19:43:12.027Z,0.30
2022-09-07T19:45:41.848Z,0.50
2022-09-07T19:48:12.120Z,0.75
2022-09-07T19:50:41.937Z,1.23
2022-09-07T19:53:10.888Z,1.13
2022-09-07T19:55:39.803Z,0.80
2022-09-07T19:58:09.970Z,0.80
2022-09-07T20:00:40.474Z,1.17
2022-09-07T20:03:11.443Z,1.15
2022-09-07T20:05:41.096Z,1.38
2022-09-07T20:08:10.407Z,1.27
2022-09-07T20:10:39.064Z,0.98
2022-09-07T20:13:07.955Z,1.38
2022-09-07T20:15:42.552Z,0.90
2022-09-07T20:18:12.698Z,1.67
2022-09-07T20:20:41.415Z,1.20
2022-09-07T20:23:10.324Z,1.17
2022-09-07T20:25:39.031Z,1.38
2022-09-07T20:28:07.662Z,1.60
2022-09-07T20:30:36.399Z,1.40
2022-09-07T20:33:05.425Z,1.93
2022-09-07T20:35:35.880Z,2.63
2022-09-07T20:38:04.667Z,3.53
2022-09-07T20:40:33.628Z,3.60
2022-09-07T20:43:02.621Z,3.05
2022-09-07T20:45:36.322Z,3.90
2022-09-07T20:48:05.490Z,4.20
2022-09-07T20:50:35.684Z,3.67
2022-09-07T20:53:04.593Z,3.58
2022-09-07T20:55:33.292Z,2.30
2022-09-07T20:58:01.928Z,2.80
2022-09-07T21:00:31.543Z,1.90
2022-09-07T21:03:00.380Z,1.55
2022-09-07T21:05:29.094Z,1.60
2022-09-07T21:07:59.150Z,1.42
2022-09-07T21:10:27.868Z,1.50
2022-09-07T21:12:56.748Z,1.30
2022-09-07T21:15:25.418Z,1.38
2022-09-07T21:17:54.045Z,1.80
2022-09-07T21:20:22.728Z,0.90
2022-09-07T21:22:51.402Z,0.80
2022-09-07T21:25:21.410Z,1.45
2022-09-07T21:27:50.033Z,2.30
2022-09-07T21:30:19.338Z,2.40
2022-09-07T21:32:52.386Z,3.17
2022-09-07T21:35:22.795Z,1.40
2022-09-07T21:37:51.467Z,1.23
2022-09-07T21:40:24.659Z,1.25
2022-09-07T21:42:54.266Z,0.90
2022-09-07T21:45:22.966Z,0.85
2022-09-07T21:47:51.541Z,1.27
2022-09-07T21:50:20.194Z,1.10
2022-09-07T21:52:48.851Z,0.90
2022-09-07T21:55:19.118Z,1.73
2022-09-07T21:57:50.057Z,1.63
2022-09-07T22:00:23.746Z,1.80
2022-09-07T22:02:53.072Z,1.00
2022-09-07T22:05:32.941Z,1.42
2022-09-07T22:08:04.783Z,1.60
2022-09-07T22:10:34.350Z,1.95
2022-09-07T22:13:05.158Z,2.07
2022-09-07T22:15:37.749Z,2.15
2022-09-07T22:18:16.557Z,1.90
2022-09-07T22:20:45.742Z,2.95
2022-09-07T22:23:14.805Z,2.50
2022-09-07T22:25:53.144Z,2.13
2022-09-07T22:28:23.772Z,2.05
2022-09-07T22:30:54.930Z,1.65
2022-09-07T22:33:23.974Z,1.50
2022-09-07T22:35:55.796Z,1.55
2022-09-07T22:38:24.978Z,0.97
2022-09-07T22:40:54.674Z,1.05
2022-09-07T22:43:25.723Z,1.13
2022-09-07T22:45:55.302Z,0.98
2022-09-07T22:48:26.763Z,0.90
2022-09-07T22:50:57.835Z,0.67
2022-09-07T22:53:27.841Z,1.02
2022-09-07T22:55:57.859Z,0.95
2022-09-07T22:58:31.484Z,1.13
2022-09-07T23:01:07.566Z,1.13
2022-09-07T23:03:42.712Z,1.03
2022-09-07T23:06:23.274Z,1.40
2022-09-07T23:09:04.454Z,1.52
2022-09-07T23:11:35.368Z,1.60
2022-09-07T23:14:13.159Z,1.40
2022-09-07T23:16:42.874Z,1.27
2022-09-07T23:19:13.906Z,3.25
2022-09-07T23:21:46.889Z,4.25
2022-09-07T23:24:18.986Z,5.45
2022-09-07T23:26:50.069Z,4.82
2022-09-07T23:29:21.355Z,5.23
2022-09-07T23:31:51.125Z,2.38
2022-09-07T23:34:20.857Z,3.22
2022-09-07T23:36:49.547Z,2.22
2022-09-07T23:39:19.136Z,2.10
2022-09-07T23:41:48.827Z,2.53
2022-09-07T23:44:19.939Z,2.55
2022-09-07T23:46:49.787Z,2.60
2022-09-07T23:49:19.205Z,2.38
2022-09-07T23:51:48.992Z,2.70
2022-09-07T23:54:18.922Z,2.40
2022-09-07T23:56:51.006Z,3.03
2022-09-07T23:59:22.134Z,3.17
